sensor_id;sensor_type;location;lat;lon;timestamp;P1;durP1;ratioP1;P2;durP2;ratioP2
17310;SDS011;8773;43.300;0.394;2022-07-01T00:02:05;2.37;;;2.17;;
17310;SDS011;8773;43.300;0.394;2022-07-01T00:04:34;2.90;;;1.73;;
17310;SDS011;8773;43.300;0.394;2022-07-01T00:07:03;2.33;;;1.70;;
17310;SDS011;8773;43.300;0.394;2022-07-01T00:09:31;3.10;;;1.87;;
17310;SDS011;8773;43.300;0.394;2022-07-01T00:11:59;1.87;;;1.60;;
17310;SDS011;8773;43.300;0.394;2022-07-01T00:14:27;3.33;;;2.00;;
17310;SDS011;8773;43.300;0.394;2022-07-01T00:16:56;2.23;;;1.97;;
17310;SDS011;8773;43.300;0.394;2022-07-01T00:19:24;4.50;;;2.53;;
17310;SDS011;8773;43.300;0.394;2022-07-01T00:21:52;2.03;;;1.73;;
17310;SDS011;8773;43.300;0.394;2022-07-01T00:24:22;2.93;;;2.30;;
17310;SDS011;8773;43.300;0.394;2022-07-01T00:26:50;2.33;;;1.60;;
17310;SDS011;8773;43.300;0.394;2022-07-01T00:29:18;5.93;;;2.13;;
17310;SDS011;8773;43.300;0.394;2022-07-01T00:31:47;2.80;;;1.80;;
17310;SDS011;8773;43.300;0.394;2022-07-01T00:34:15;2.83;;;2.60;;
17310;SDS011;8773;43.300;0.394;2022-07-01T00:36:43;2.40;;;2.20;;
17310;SDS011;8773;43.300;0.394;2022-07-01T00:39:11;4.53;;;2.63;;
17310;SDS011;8773;43.300;0.394;2022-07-01T00:41:40;2.63;;;2.30;;
17310;SDS011;8773;43.300;0.394;2022-07-01T00:44:15;4.17;;;2.73;;
17310;SDS011;8773;43.300;0.394;2022-07-01T00:46:43;2.43;;;2.10;;
17310;SDS011;8773;43.300;0.394;2022-07-01T00:49:12;2.63;;;2.43;;
17310;SDS011;8773;43.300;0.394;2022-07-01T00:51:40;2.77;;;2.37;;
17310;SDS011;8773;43.300;0.394;2022-07-01T00:54:08;3.13;;;2.40;;
17310;SDS011;8773;43.300;0.394;2022-07-01T00:56:36;3.67;;;2.30;;
17310;SDS011;8773;43.300;0.394;2022-07-01T00:59:05;3.20;;;2.23;;
17310;SDS011;8773;43.300;0.394;2022-07-01T01:01:33;3.43;;;2.53;;
17310;SDS011;8773;43.300;0.394;2022-07-01T01:04:01;3.43;;;1.80;;
17310;SDS011;8773;43.300;0.394;2022-07-01T01:06:30;4.83;;;2.23;;
17310;SDS011;8773;43.300;0.394;2022-07-01T01:08:58;3.00;;;2.17;;
17310;SDS011;8773;43.300;0.394;2022-07-01T01:11:26;3.13;;;2.23;;
17310;SDS011;8773;43.300;0.394;2022-07-01T01:13:54;2.47;;;2.30;;
17310;SDS011;8773;43.300;0.394;2022-07-01T01:16:23;4.33;;;2.60;;
17310;SDS011;8773;43.300;0.394;2022-07-01T01:18:52;4.70;;;2.50;;
17310;SDS011;8773;43.300;0.394;2022-07-01T01:21:23;3.87;;;2.50;;
17310;SDS011;8773;43.300;0.394;2022-07-01T01:23:52;2.93;;;2.13;;
17310;SDS011;8773;43.300;0.394;2022-07-01T01:26:20;4.10;;;2.60;;
17310;SDS011;8773;43.300;0.394;2022-07-01T01:28:50;2.07;;;1.80;;
17310;SDS011;8773;43.300;0.394;2022-07-01T01:31:26;3.60;;;2.60;;
17310;SDS011;8773;43.300;0.394;2022-07-01T01:33:56;4.30;;;2.57;;
17310;SDS011;8773;43.300;0.394;2022-07-01T01:36:26;5.10;;;2.87;;
17310;SDS011;8773;43.300;0.394;2022-07-01T01:38:54;4.00;;;2.43;;
17310;SDS011;8773;43.300;0.394;2022-07-01T01:41:22;4.10;;;2.37;;
17310;SDS011;8773;43.300;0.394;2022-07-01T01:43:50;4.10;;;1.87;;
17310;SDS011;8773;43.300;0.394;2022-07-01T01:46:18;3.30;;;2.20;;
17310;SDS011;8773;43.300;0.394;2022-07-01T01:48:46;2.37;;;2.13;;
17310;SDS011;8773;43.300;0.394;2022-07-01T01:51:14;3.57;;;2.80;;
17310;SDS011;8773;43.300;0.394;2022-07-01T01:53:46;3.27;;;1.90;;
17310;SDS011;8773;43.300;0.394;2022-07-01T01:56:14;3.10;;;2.10;;
17310;SDS011;8773;43.300;0.394;2022-07-01T01:58:43;2.80;;;2.10;;
17310;SDS011;8773;43.300;0.394;2022-07-01T02:01:11;2.90;;;2.07;;
17310;SDS011;8773;43.300;0.394;2022-07-01T02:03:41;4.33;;;2.53;;
17310;SDS011;8773;43.300;0.394;2022-07-01T02:06:10;2.67;;;2.13;;
17310;SDS011;8773;43.300;0.394;2022-07-01T02:08:39;2.90;;;2.30;;
17310;SDS011;8773;43.300;0.394;2022-07-01T02:11:08;3.00;;;2.63;;
17310;SDS011;8773;43.300;0.394;2022-07-01T02:13:37;2.53;;;2.43;;
17310;SDS011;8773;43.300;0.394;2022-07-01T02:16:05;2.93;;;2.57;;
17310;SDS011;8773;43.300;0.394;2022-07-01T02:18:33;3.17;;;2.80;;
17310;SDS011;8773;43.300;0.394;2022-07-01T02:21:01;3.00;;;2.37;;
17310;SDS011;8773;43.300;0.394;2022-07-01T02:23:36;2.33;;;2.13;;
17310;SDS011;8773;43.300;0.394;2022-07-01T02:26:04;2.53;;;2.10;;
17310;SDS011;8773;43.300;0.394;2022-07-01T02:28:33;2.20;;;2.10;;
17310;SDS011;8773;43.300;0.394;2022-07-01T02:31:01;1.70;;;1.60;;
17310;SDS011;8773;43.300;0.394;2022-07-01T02:33:30;3.03;;;2.20;;
17310;SDS011;8773;43.300;0.394;2022-07-01T02:35:58;2.13;;;1.70;;
17310;SDS011;8773;43.300;0.394;2022-07-01T02:38:26;2.03;;;1.80;;
17310;SDS011;8773;43.300;0.394;2022-07-01T02:40:54;1.50;;;1.40;;
17310;SDS011;8773;43.300;0.394;2022-07-01T02:43:22;3.37;;;1.90;;
17310;SDS011;8773;43.300;0.394;2022-07-01T02:45:51;2.90;;;1.60;;
17310;SDS011;8773;43.300;0.394;2022-07-01T02:48:19;2.83;;;1.70;;
17310;SDS011;8773;43.300;0.394;2022-07-01T02:50:47;1.60;;;1.50;;
17310;SDS011;8773;43.300;0.394;2022-07-01T02:53:16;1.80;;;1.70;;
17310;SDS011;8773;43.300;0.394;2022-07-01T02:55:43;1.63;;;1.37;;
17310;SDS011;8773;43.300;0.394;2022-07-01T02:58:11;2.10;;;1.73;;
17310;SDS011;8773;43.300;0.394;2022-07-01T03:00:40;1.60;;;1.50;;
17310;SDS011;8773;43.300;0.394;2022-07-01T03:03:09;4.07;;;1.60;;
17310;SDS011;8773;43.300;0.394;2022-07-01T03:05:37;3.13;;;1.80;;
17310;SDS011;8773;43.300;0.394;2022-07-01T03:08:05;2.23;;;2.03;;
17310;SDS011;8773;43.300;0.394;2022-07-01T03:10:33;2.50;;;1.67;;
17310;SDS011;8773;43.300;0.394;2022-07-01T03:13:01;2.90;;;1.67;;
17310;SDS011;8773;43.300;0.394;2022-07-01T03:15:29;2.10;;;1.97;;
17310;SDS011;8773;43.300;0.394;2022-07-01T03:17:57;3.87;;;1.90;;
17310;SDS011;8773;43.300;0.394;2022-07-01T03:20:26;1.93;;;1.50;;
17310;SDS011;8773;43.300;0.394;2022-07-01T03:22:54;2.23;;;2.00;;
17310;SDS011;8773;43.300;0.394;2022-07-01T03:25:22;1.97;;;1.87;;
17310;SDS011;8773;43.300;0.394;2022-07-01T03:27:50;3.73;;;2.10;;
17310;SDS011;8773;43.300;0.394;2022-07-01T03:30:18;3.33;;;2.00;;
17310;SDS011;8773;43.300;0.394;2022-07-01T03:32:47;2.30;;;2.20;;
17310;SDS011;8773;43.300;0.394;2022-07-01T03:35:15;2.70;;;1.87;;
17310;SDS011;8773;43.300;0.394;2022-07-01T03:38:02;2.63;;;1.67;;
17310;SDS011;8773;43.300;0.394;2022-07-01T03:40:31;2.17;;;2.10;;
17310;SDS011;8773;43.300;0.394;2022-07-01T03:42:59;2.40;;;2.23;;
17310;SDS011;8773;43.300;0.394;2022-07-01T03:45:27;2.77;;;2.67;;
17310;SDS011;8773;43.300;0.394;2022-07-01T03:47:55;2.33;;;1.97;;
17310;SDS011;8773;43.300;0.394;2022-07-01T03:50:24;2.50;;;2.30;;
17310;SDS011;8773;43.300;0.394;2022-07-01T03:52:53;2.87;;;2.67;;
17310;SDS011;8773;43.300;0.394;2022-07-01T03:55:40;2.40;;;2.30;;
17310;SDS011;8773;43.300;0.394;2022-07-01T03:58:08;4.63;;;2.73;;
17310;SDS011;8773;43.300;0.394;2022-07-01T04:00:36;2.00;;;1.93;;
17310;SDS011;8773;43.300;0.394;2022-07-01T04:03:05;3.53;;;2.90;;
17310;SDS011;8773;43.300;0.394;2022-07-01T04:05:34;4.07;;;2.73;;
17310;SDS011;8773;43.300;0.394;2022-07-01T04:08:03;2.40;;;2.20;;
17310;SDS011;8773;43.300;0.394;2022-07-01T04:10:34;3.47;;;2.37;;
17310;SDS011;8773;43.300;0.394;2022-07-01T04:13:03;2.83;;;2.63;;
17310;SDS011;8773;43.300;0.394;2022-07-01T04:15:51;2.60;;;2.40;;
17310;SDS011;8773;43.300;0.394;2022-07-01T04:18:20;3.27;;;2.50;;
17310;SDS011;8773;43.300;0.394;2022-07-01T04:20:48;6.30;;;3.17;;
17310;SDS011;8773;43.300;0.394;2022-07-01T04:23:30;2.40;;;2.10;;
17310;SDS011;8773;43.300;0.394;2022-07-01T04:26:00;2.73;;;2.30;;
17310;SDS011;8773;43.300;0.394;2022-07-01T04:28:49;3.13;;;2.83;;
17310;SDS011;8773;43.300;0.394;2022-07-01T04:31:17;2.90;;;2.63;;
17310;SDS011;8773;43.300;0.394;2022-07-01T04:33:46;3.13;;;1.70;;
17310;SDS011;8773;43.300;0.394;2022-07-01T04:36:15;2.20;;;2.10;;
17310;SDS011;8773;43.300;0.394;2022-07-01T04:38:43;4.27;;;2.33;;
17310;SDS011;8773;43.300;0.394;2022-07-01T04:41:11;2.50;;;2.30;;
17310;SDS011;8773;43.300;0.394;2022-07-01T04:43:58;4.13;;;2.40;;
17310;SDS011;8773;43.300;0.394;2022-07-01T04:46:26;3.13;;;2.50;;
17310;SDS011;8773;43.300;0.394;2022-07-01T04:48:54;2.70;;;2.50;;
17310;SDS011;8773;43.300;0.394;2022-07-01T04:51:22;2.50;;;2.30;;
17310;SDS011;8773;43.300;0.394;2022-07-01T04:53:50;3.93;;;2.07;;
17310;SDS011;8773;43.300;0.394;2022-07-01T04:56:19;3.40;;;2.27;;
17310;SDS011;8773;43.300;0.394;2022-07-01T04:58:47;1.83;;;1.70;;
17310;SDS011;8773;43.300;0.394;2022-07-01T05:01:16;1.63;;;1.53;;
17310;SDS011;8773;43.300;0.394;2022-07-01T05:03:44;1.60;;;1.60;;
17310;SDS011;8773;43.300;0.394;2022-07-01T05:06:13;1.87;;;1.80;;
17310;SDS011;8773;43.300;0.394;2022-07-01T05:08:40;1.83;;;1.73;;
17310;SDS011;8773;43.300;0.394;2022-07-01T05:11:09;2.27;;;2.17;;
17310;SDS011;8773;43.300;0.394;2022-07-01T05:13:37;2.10;;;2.00;;
17310;SDS011;8773;43.300;0.394;2022-07-01T05:16:05;2.60;;;2.40;;
17310;SDS011;8773;43.300;0.394;2022-07-01T05:18:36;1.83;;;1.70;;
17310;SDS011;8773;43.300;0.394;2022-07-01T05:21:22;3.10;;;2.30;;
17310;SDS011;8773;43.300;0.394;2022-07-01T05:24:08;2.23;;;2.13;;
17310;SDS011;8773;43.300;0.394;2022-07-01T05:26:36;2.50;;;2.30;;
17310;SDS011;8773;43.300;0.394;2022-07-01T05:29:04;2.13;;;2.03;;
17310;SDS011;8773;43.300;0.394;2022-07-01T05:31:32;2.07;;;1.97;;
17310;SDS011;8773;43.300;0.394;2022-07-01T05:34:02;2.13;;;2.03;;
17310;SDS011;8773;43.300;0.394;2022-07-01T05:36:30;1.87;;;1.70;;
17310;SDS011;8773;43.300;0.394;2022-07-01T05:38:59;2.10;;;2.03;;
17310;SDS011;8773;43.300;0.394;2022-07-01T05:41:27;1.80;;;1.70;;
17310;SDS011;8773;43.300;0.394;2022-07-01T05:43:55;2.07;;;1.97;;
17310;SDS011;8773;43.300;0.394;2022-07-01T05:46:23;2.57;;;2.07;;
17310;SDS011;8773;43.300;0.394;2022-07-01T05:48:51;2.60;;;1.80;;
17310;SDS011;8773;43.300;0.394;2022-07-01T05:51:21;1.80;;;1.77;;
17310;SDS011;8773;43.300;0.394;2022-07-01T05:53:49;2.00;;;1.90;;
17310;SDS011;8773;43.300;0.394;2022-07-01T05:56:17;2.30;;;2.10;;
17310;SDS011;8773;43.300;0.394;2022-07-01T05:58:45;2.23;;;2.10;;
17310;SDS011;8773;43.300;0.394;2022-07-01T06:01:14;1.90;;;1.80;;
17310;SDS011;8773;43.300;0.394;2022-07-01T06:03:42;2.23;;;1.93;;
17310;SDS011;8773;43.300;0.394;2022-07-01T06:06:10;3.07;;;2.10;;
17310;SDS011;8773;43.300;0.394;2022-07-01T06:08:39;2.13;;;1.93;;
17310;SDS011;8773;43.300;0.394;2022-07-01T06:11:07;3.27;;;1.90;;
17310;SDS011;8773;43.300;0.394;2022-07-01T06:13:35;2.40;;;1.83;;
17310;SDS011;8773;43.300;0.394;2022-07-01T06:16:04;2.20;;;2.00;;
17310;SDS011;8773;43.300;0.394;2022-07-01T06:18:32;4.37;;;2.10;;
17310;SDS011;8773;43.300;0.394;2022-07-01T06:21:00;2.10;;;2.00;;
17310;SDS011;8773;43.300;0.394;2022-07-01T06:23:28;2.13;;;2.03;;
17310;SDS011;8773;43.300;0.394;2022-07-01T06:25:58;2.40;;;2.20;;
17310;SDS011;8773;43.300;0.394;2022-07-01T06:28:26;2.20;;;2.10;;
17310;SDS011;8773;43.300;0.394;2022-07-01T06:30:56;2.50;;;2.30;;
17310;SDS011;8773;43.300;0.394;2022-07-01T06:33:25;2.47;;;2.27;;
17310;SDS011;8773;43.300;0.394;2022-07-01T06:35:56;2.23;;;2.13;;
17310;SDS011;8773;43.300;0.394;2022-07-01T06:38:24;1.87;;;1.83;;
17310;SDS011;8773;43.300;0.394;2022-07-01T06:40:53;2.00;;;1.90;;
17310;SDS011;8773;43.300;0.394;2022-07-01T06:43:54;1.97;;;1.87;;
17310;SDS011;8773;43.300;0.394;2022-07-01T06:46:23;2.20;;;2.10;;
17310;SDS011;8773;43.300;0.394;2022-07-01T06:48:51;2.20;;;2.00;;
17310;SDS011;8773;43.300;0.394;2022-07-01T06:51:19;3.13;;;1.80;;
17310;SDS011;8773;43.300;0.394;2022-07-01T06:53:47;2.07;;;2.07;;
17310;SDS011;8773;43.300;0.394;2022-07-01T06:56:16;2.33;;;2.10;;
17310;SDS011;8773;43.300;0.394;2022-07-01T06:58:44;2.47;;;2.27;;
17310;SDS011;8773;43.300;0.394;2022-07-01T07:01:14;2.40;;;1.60;;
17310;SDS011;8773;43.300;0.394;2022-07-01T07:03:42;1.60;;;1.47;;
17310;SDS011;8773;43.300;0.394;2022-07-01T07:06:10;1.60;;;1.60;;
17310;SDS011;8773;43.300;0.394;2022-07-01T07:08:38;2.37;;;1.50;;
17310;SDS011;8773;43.300;0.394;2022-07-01T07:11:06;1.73;;;1.63;;
17310;SDS011;8773;43.300;0.394;2022-07-01T07:13:35;3.00;;;1.30;;
17310;SDS011;8773;43.300;0.394;2022-07-01T07:16:03;3.27;;;1.80;;
17310;SDS011;8773;43.300;0.394;2022-07-01T07:18:34;1.70;;;1.60;;
17310;SDS011;8773;43.300;0.394;2022-07-01T07:21:02;2.80;;;1.43;;
17310;SDS011;8773;43.300;0.394;2022-07-01T07:23:30;1.60;;;1.50;;
17310;SDS011;8773;43.300;0.394;2022-07-01T07:25:58;1.40;;;1.30;;
17310;SDS011;8773;43.300;0.394;2022-07-01T07:28:26;1.30;;;1.30;;
17310;SDS011;8773;43.300;0.394;2022-07-01T07:30:54;1.77;;;1.67;;
17310;SDS011;8773;43.300;0.394;2022-07-01T07:33:23;1.57;;;1.47;;
17310;SDS011;8773;43.300;0.394;2022-07-01T07:35:52;3.33;;;1.40;;
17310;SDS011;8773;43.300;0.394;2022-07-01T07:38:20;2.40;;;1.27;;
17310;SDS011;8773;43.300;0.394;2022-07-01T07:40:48;3.57;;;1.67;;
17310;SDS011;8773;43.300;0.394;2022-07-01T07:43:16;1.93;;;1.50;;
17310;SDS011;8773;43.300;0.394;2022-07-01T07:45:45;1.20;;;1.17;;
17310;SDS011;8773;43.300;0.394;2022-07-01T07:48:13;2.73;;;1.37;;
17310;SDS011;8773;43.300;0.394;2022-07-01T07:50:41;2.03;;;1.37;;
17310;SDS011;8773;43.300;0.394;2022-07-01T07:53:10;1.63;;;1.50;;
17310;SDS011;8773;43.300;0.394;2022-07-01T07:55:38;2.00;;;1.40;;
17310;SDS011;8773;43.300;0.394;2022-07-01T07:58:06;1.63;;;1.37;;
17310;SDS011;8773;43.300;0.394;2022-07-01T08:00:35;2.57;;;1.47;;
17310;SDS011;8773;43.300;0.394;2022-07-01T08:03:06;1.80;;;1.70;;
17310;SDS011;8773;43.300;0.394;2022-07-01T08:05:34;1.80;;;1.53;;
17310;SDS011;8773;43.300;0.394;2022-07-01T08:08:03;1.50;;;1.40;;
17310;SDS011;8773;43.300;0.394;2022-07-01T08:10:33;3.28;;;1.90;;
17310;SDS011;8773;43.300;0.394;2022-07-01T08:13:01;1.35;;;1.25;;
17310;SDS011;8773;43.300;0.394;2022-07-01T08:15:31;1.90;;;1.40;;
17310;SDS011;8773;43.300;0.394;2022-07-01T08:17:59;7.25;;;2.10;;
17310;SDS011;8773;43.300;0.394;2022-07-01T08:20:27;3.17;;;1.70;;
17310;SDS011;8773;43.300;0.394;2022-07-01T08:22:55;2.38;;;1.75;;
17310;SDS011;8773;43.300;0.394;2022-07-01T08:25:23;3.47;;;1.80;;
17310;SDS011;8773;43.300;0.394;2022-07-01T08:27:56;3.17;;;1.60;;
17310;SDS011;8773;43.300;0.394;2022-07-01T08:30:24;2.70;;;1.40;;
17310;SDS011;8773;43.300;0.394;2022-07-01T08:32:52;2.72;;;1.80;;
17310;SDS011;8773;43.300;0.394;2022-07-01T08:35:20;2.67;;;1.55;;
17310;SDS011;8773;43.300;0.394;2022-07-01T08:37:48;3.30;;;1.90;;
17310;SDS011;8773;43.300;0.394;2022-07-01T08:40:16;1.70;;;1.35;;
17310;SDS011;8773;43.300;0.394;2022-07-01T08:42:45;2.75;;;1.60;;
17310;SDS011;8773;43.300;0.394;2022-07-01T08:45:15;3.67;;;2.00;;
17310;SDS011;8773;43.300;0.394;2022-07-01T08:47:49;3.33;;;1.98;;
17310;SDS011;8773;43.300;0.394;2022-07-01T08:50:18;3.42;;;1.60;;
17310;SDS011;8773;43.300;0.394;2022-07-01T08:52:49;2.30;;;1.70;;
17310;SDS011;8773;43.300;0.394;2022-07-01T08:55:18;4.70;;;1.70;;
17310;SDS011;8773;43.300;0.394;2022-07-01T08:57:46;5.07;;;1.83;;
17310;SDS011;8773;43.300;0.394;2022-07-01T09:00:16;2.92;;;1.73;;
17310;SDS011;8773;43.300;0.394;2022-07-01T09:02:52;2.17;;;1.55;;
17310;SDS011;8773;43.300;0.394;2022-07-01T09:05:23;2.25;;;1.25;;
17310;SDS011;8773;43.300;0.394;2022-07-01T09:07:55;2.45;;;1.45;;
17310;SDS011;8773;43.300;0.394;2022-07-01T09:10:24;2.45;;;1.63;;
17310;SDS011;8773;43.300;0.394;2022-07-01T09:12:52;2.83;;;1.70;;
17310;SDS011;8773;43.300;0.394;2022-07-01T09:15:23;1.60;;;1.30;;
17310;SDS011;8773;43.300;0.394;2022-07-01T09:17:53;1.90;;;1.40;;
17310;SDS011;8773;43.300;0.394;2022-07-01T09:20:23;2.28;;;1.30;;
17310;SDS011;8773;43.300;0.394;2022-07-01T09:23:02;3.92;;;1.50;;
17310;SDS011;8773;43.300;0.394;2022-07-01T09:25:33;1.65;;;1.30;;
17310;SDS011;8773;43.300;0.394;2022-07-01T09:28:12;3.55;;;1.58;;
17310;SDS011;8773;43.300;0.394;2022-07-01T09:30:43;1.25;;;1.10;;
17310;SDS011;8773;43.300;0.394;2022-07-01T09:33:13;1.80;;;1.40;;
17310;SDS011;8773;43.300;0.394;2022-07-01T09:35:43;2.45;;;1.33;;
17310;SDS011;8773;43.300;0.394;2022-07-01T09:38:12;1.40;;;1.30;;
17310;SDS011;8773;43.300;0.394;2022-07-01T09:40:58;1.35;;;1.25;;
17310;SDS011;8773;43.300;0.394;2022-07-01T09:43:28;1.38;;;1.05;;
17310;SDS011;8773;43.300;0.394;2022-07-01T09:45:59;2.60;;;1.33;;
17310;SDS011;8773;43.300;0.394;2022-07-01T09:48:41;3.42;;;1.23;;
17310;SDS011;8773;43.300;0.394;2022-07-01T09:51:11;1.75;;;1.30;;
17310;SDS011;8773;43.300;0.394;2022-07-01T09:53:42;2.05;;;1.30;;
17310;SDS011;8773;43.300;0.394;2022-07-01T09:56:10;2.10;;;1.70;;
17310;SDS011;8773;43.300;0.394;2022-07-01T09:58:38;2.10;;;1.50;;
17310;SDS011;8773;43.300;0.394;2022-07-01T10:01:12;3.72;;;1.42;;
17310;SDS011;8773;43.300;0.394;2022-07-01T10:03:42;2.15;;;1.17;;
17310;SDS011;8773;43.300;0.394;2022-07-01T10:06:19;2.25;;;1.20;;
17310;SDS011;8773;43.300;0.394;2022-07-01T10:09:10;1.33;;;1.23;;
17310;SDS011;8773;43.300;0.394;2022-07-01T10:12:01;1.50;;;1.40;;
17310;SDS011;8773;43.300;0.394;2022-07-01T10:14:44;1.33;;;1.23;;
17310;SDS011;8773;43.300;0.394;2022-07-01T10:17:26;2.72;;;1.25;;
17310;SDS011;8773;43.300;0.394;2022-07-01T10:19:55;2.60;;;1.73;;
17310;SDS011;8773;43.300;0.394;2022-07-01T10:22:25;1.52;;;1.20;;
17310;SDS011;8773;43.300;0.394;2022-07-01T10:24:55;2.30;;;1.30;;
17310;SDS011;8773;43.300;0.394;2022-07-01T10:27:24;1.17;;;1.10;;
17310;SDS011;8773;43.300;0.394;2022-07-01T10:32:44;1.50;;;1.20;;
17310;SDS011;8773;43.300;0.394;2022-07-01T10:35:34;1.65;;;1.55;;
17310;SDS011;8773;43.300;0.394;2022-07-01T10:38:04;1.50;;;1.20;;
17310;SDS011;8773;43.300;0.394;2022-07-01T10:40:42;1.85;;;1.10;;
17310;SDS011;8773;43.300;0.394;2022-07-01T10:43:14;1.90;;;1.10;;
17310;SDS011;8773;43.300;0.394;2022-07-01T10:45:54;1.85;;;1.10;;
17310;SDS011;8773;43.300;0.394;2022-07-01T10:48:24;1.20;;;1.10;;
17310;SDS011;8773;43.300;0.394;2022-07-01T10:50:52;2.38;;;1.52;;
17310;SDS011;8773;43.300;0.394;2022-07-01T10:53:21;1.70;;;1.55;;
17310;SDS011;8773;43.300;0.394;2022-07-01T10:55:50;2.20;;;1.35;;
17310;SDS011;8773;43.300;0.394;2022-07-01T11:01:06;1.30;;;1.20;;
17310;SDS011;8773;43.300;0.394;2022-07-01T11:03:36;2.63;;;1.38;;
17310;SDS011;8773;43.300;0.394;2022-07-01T11:06:06;1.23;;;1.10;;
17310;SDS011;8773;43.300;0.394;2022-07-01T11:08:35;1.30;;;1.20;;
17310;SDS011;8773;43.300;0.394;2022-07-01T11:11:04;2.70;;;1.10;;
17310;SDS011;8773;43.300;0.394;2022-07-01T11:13:32;3.42;;;1.17;;
17310;SDS011;8773;43.300;0.394;2022-07-01T11:16:02;1.45;;;1.17;;
17310;SDS011;8773;43.300;0.394;2022-07-01T11:18:31;1.27;;;1.17;;
17310;SDS011;8773;43.300;0.394;2022-07-01T11:21:06;3.25;;;1.40;;
17310;SDS011;8773;43.300;0.394;2022-07-01T11:23:35;1.40;;;1.10;;
17310;SDS011;8773;43.300;0.394;2022-07-01T11:26:07;1.60;;;1.38;;
17310;SDS011;8773;43.300;0.394;2022-07-01T11:28:46;1.85;;;1.20;;
17310;SDS011;8773;43.300;0.394;2022-07-01T11:31:14;1.35;;;1.15;;
17310;SDS011;8773;43.300;0.394;2022-07-01T11:33:42;1.67;;;1.15;;
17310;SDS011;8773;43.300;0.394;2022-07-01T11:36:18;2.03;;;1.35;;
17310;SDS011;8773;43.300;0.394;2022-07-01T11:39:03;2.17;;;1.30;;
17310;SDS011;8773;43.300;0.394;2022-07-01T11:41:53;2.00;;;1.40;;
17310;SDS011;8773;43.300;0.394;2022-07-01T11:44:29;2.40;;;1.38;;
17310;SDS011;8773;43.300;0.394;2022-07-01T11:46:59;1.33;;;1.20;;
17310;SDS011;8773;43.300;0.394;2022-07-01T11:49:28;1.38;;;1.25;;
17310;SDS011;8773;43.300;0.394;2022-07-01T11:51:58;1.30;;;1.10;;
17310;SDS011;8773;43.300;0.394;2022-07-01T11:54:27;1.10;;;1.10;;
17310;SDS011;8773;43.300;0.394;2022-07-01T11:57:07;1.85;;;1.20;;
17310;SDS011;8773;43.300;0.394;2022-07-01T11:59:36;1.70;;;1.30;;
17310;SDS011;8773;43.300;0.394;2022-07-01T12:02:06;1.67;;;1.20;;
17310;SDS011;8773;43.300;0.394;2022-07-01T12:04:37;2.05;;;1.45;;
17310;SDS011;8773;43.300;0.394;2022-07-01T12:07:07;1.05;;;1.00;;
17310;SDS011;8773;43.300;0.394;2022-07-01T12:09:37;1.33;;;1.15;;
17310;SDS011;8773;43.300;0.394;2022-07-01T12:12:07;1.80;;;1.23;;
17310;SDS011;8773;43.300;0.394;2022-07-01T12:14:48;2.50;;;1.30;;
17310;SDS011;8773;43.300;0.394;2022-07-01T12:17:18;1.90;;;1.10;;
17310;SDS011;8773;43.300;0.394;2022-07-01T12:19:47;2.20;;;1.27;;
17310;SDS011;8773;43.300;0.394;2022-07-01T12:22:18;2.15;;;1.20;;
17310;SDS011;8773;43.300;0.394;2022-07-01T12:24:50;2.08;;;1.42;;
17310;SDS011;8773;43.300;0.394;2022-07-01T12:27:32;2.45;;;1.58;;
17310;SDS011;8773;43.300;0.394;2022-07-01T12:30:02;1.10;;;1.10;;
17310;SDS011;8773;43.300;0.394;2022-07-01T12:32:30;1.20;;;1.10;;
17310;SDS011;8773;43.300;0.394;2022-07-01T12:35:01;1.90;;;1.23;;
17310;SDS011;8773;43.300;0.394;2022-07-01T12:37:32;1.67;;;1.30;;
17310;SDS011;8773;43.300;0.394;2022-07-01T12:40:02;1.30;;;1.13;;
17310;SDS011;8773;43.300;0.394;2022-07-01T12:42:32;1.55;;;1.40;;
17310;SDS011;8773;43.300;0.394;2022-07-01T12:45:05;2.92;;;1.20;;
17310;SDS011;8773;43.300;0.394;2022-07-01T12:47:35;2.42;;;1.27;;
17310;SDS011;8773;43.300;0.394;2022-07-01T12:50:17;1.33;;;1.23;;
17310;SDS011;8773;43.300;0.394;2022-07-01T12:52:58;1.35;;;1.23;;
17310;SDS011;8773;43.300;0.394;2022-07-01T12:55:28;1.63;;;1.20;;
17310;SDS011;8773;43.300;0.394;2022-07-01T12:57:59;2.22;;;1.20;;
17310;SDS011;8773;43.300;0.394;2022-07-01T13:00:29;1.13;;;1.02;;
17310;SDS011;8773;43.300;0.394;2022-07-01T13:02:58;2.28;;;1.30;;
17310;SDS011;8773;43.300;0.394;2022-07-01T13:05:27;1.50;;;1.10;;
17310;SDS011;8773;43.300;0.394;2022-07-01T13:07:58;2.72;;;1.45;;
17310;SDS011;8773;43.300;0.394;2022-07-01T13:10:26;3.15;;;1.20;;
17310;SDS011;8773;43.300;0.394;2022-07-01T13:12:55;1.65;;;1.13;;
17310;SDS011;8773;43.300;0.394;2022-07-01T13:15:23;1.20;;;1.10;;
17310;SDS011;8773;43.300;0.394;2022-07-01T13:17:52;2.67;;;1.35;;
17310;SDS011;8773;43.300;0.394;2022-07-01T13:20:20;1.42;;;1.30;;
17310;SDS011;8773;43.300;0.394;2022-07-01T13:22:48;2.28;;;1.27;;
17310;SDS011;8773;43.300;0.394;2022-07-01T13:25:17;1.30;;;1.20;;
17310;SDS011;8773;43.300;0.394;2022-07-01T13:27:45;1.30;;;1.20;;
17310;SDS011;8773;43.300;0.394;2022-07-01T13:30:13;1.58;;;1.15;;
17310;SDS011;8773;43.300;0.394;2022-07-01T13:32:42;1.65;;;1.13;;
17310;SDS011;8773;43.300;0.394;2022-07-01T13:35:11;2.63;;;1.48;;
17310;SDS011;8773;43.300;0.394;2022-07-01T13:37:41;2.20;;;1.17;;
17310;SDS011;8773;43.300;0.394;2022-07-01T13:40:09;1.20;;;1.10;;
17310;SDS011;8773;43.300;0.394;2022-07-01T13:42:39;1.23;;;1.10;;
17310;SDS011;8773;43.300;0.394;2022-07-01T13:45:07;1.27;;;1.10;;
17310;SDS011;8773;43.300;0.394;2022-07-01T13:47:36;2.10;;;1.10;;
17310;SDS011;8773;43.300;0.394;2022-07-01T13:50:05;1.83;;;1.10;;
17310;SDS011;8773;43.300;0.394;2022-07-01T13:52:37;1.23;;;1.10;;
17310;SDS011;8773;43.300;0.394;2022-07-01T13:55:12;2.25;;;1.63;;
17310;SDS011;8773;43.300;0.394;2022-07-01T13:57:42;2.05;;;1.15;;
17310;SDS011;8773;43.300;0.394;2022-07-01T14:00:13;1.40;;;1.30;;
17310;SDS011;8773;43.300;0.394;2022-07-01T14:02:41;1.30;;;1.20;;
17310;SDS011;8773;43.300;0.394;2022-07-01T14:05:09;1.33;;;1.00;;
17310;SDS011;8773;43.300;0.394;2022-07-01T14:07:37;1.95;;;1.30;;
17310;SDS011;8773;43.300;0.394;2022-07-01T14:10:06;3.25;;;1.33;;
17310;SDS011;8773;43.300;0.394;2022-07-01T14:12:35;1.40;;;1.30;;
17310;SDS011;8773;43.300;0.394;2022-07-01T14:15:05;1.38;;;1.13;;
17310;SDS011;8773;43.300;0.394;2022-07-01T14:17:34;1.75;;;1.13;;
17310;SDS011;8773;43.300;0.394;2022-07-01T14:20:03;2.50;;;1.20;;
17310;SDS011;8773;43.300;0.394;2022-07-01T14:22:32;1.08;;;1.00;;
17310;SDS011;8773;43.300;0.394;2022-07-01T14:25:00;1.30;;;1.20;;
17310;SDS011;8773;43.300;0.394;2022-07-01T14:27:28;1.50;;;1.40;;
17310;SDS011;8773;43.300;0.394;2022-07-01T14:29:56;2.17;;;1.27;;
17310;SDS011;8773;43.300;0.394;2022-07-01T14:32:26;1.27;;;1.00;;
17310;SDS011;8773;43.300;0.394;2022-07-01T14:34:56;3.45;;;1.33;;
17310;SDS011;8773;43.300;0.394;2022-07-01T14:37:24;1.55;;;1.20;;
17310;SDS011;8773;43.300;0.394;2022-07-01T14:39:52;2.03;;;1.33;;
17310;SDS011;8773;43.300;0.394;2022-07-01T14:42:23;1.90;;;1.17;;
17310;SDS011;8773;43.300;0.394;2022-07-01T14:44:52;1.65;;;1.10;;
17310;SDS011;8773;43.300;0.394;2022-07-01T14:47:20;1.75;;;1.10;;
17310;SDS011;8773;43.300;0.394;2022-07-01T14:49:50;1.35;;;1.25;;
17310;SDS011;8773;43.300;0.394;2022-07-01T14:52:20;1.50;;;1.40;;
17310;SDS011;8773;43.300;0.394;2022-07-01T14:54:49;1.20;;;1.10;;
17310;SDS011;8773;43.300;0.394;2022-07-01T14:57:17;1.52;;;1.13;;
17310;SDS011;8773;43.300;0.394;2022-07-01T14:59:47;1.50;;;1.00;;
17310;SDS011;8773;43.300;0.394;2022-07-01T15:02:15;1.55;;;1.20;;
17310;SDS011;8773;43.300;0.394;2022-07-01T15:04:43;1.58;;;1.42;;
17310;SDS011;8773;43.300;0.394;2022-07-01T15:07:13;1.58;;;1.30;;
17310;SDS011;8773;43.300;0.394;2022-07-01T15:09:44;1.63;;;1.27;;
17310;SDS011;8773;43.300;0.394;2022-07-01T15:12:12;1.42;;;1.20;;
17310;SDS011;8773;43.300;0.394;2022-07-01T15:14:40;1.67;;;1.15;;
17310;SDS011;8773;43.300;0.394;2022-07-01T15:17:09;2.53;;;1.48;;
17310;SDS011;8773;43.300;0.394;2022-07-01T15:19:37;2.20;;;1.27;;
17310;SDS011;8773;43.300;0.394;2022-07-01T15:22:06;1.00;;;1.00;;
17310;SDS011;8773;43.300;0.394;2022-07-01T15:24:36;2.10;;;1.02;;